createdAt,value
2018-04-29T00:00:41.061Z,4.63
2018-04-29T00:03:16.372Z,5.00
2018-04-29T00:05:56.172Z,4.00
2018-04-29T00:08:31.918Z,5.80
2018-04-29T00:11:11.879Z,4.20
2018-04-29T00:13:48.863Z,4.20
2018-04-29T00:16:28.596Z,4.83
2018-04-29T00:19:08.023Z,5.53
2018-04-29T00:21:49.448Z,4.73
2018-04-29T00:24:29.274Z,5.60
2018-04-29T00:27:08.714Z,4.70
2018-04-29T00:29:49.379Z,4.27
2018-04-29T00:32:28.044Z,5.20
2018-04-29T00:35:06.709Z,6.60
2018-04-29T00:37:46.608Z,5.50
2018-04-29T00:40:25.936Z,5.47
2018-04-29T00:43:04.395Z,5.63
2018-04-29T00:45:43.798Z,4.83
2018-04-29T00:48:23.492Z,5.40
2018-04-29T00:51:03.634Z,5.67
2018-04-29T00:53:44.694Z,5.90
2018-04-29T00:56:24.826Z,7.53
2018-04-29T00:59:04.862Z,5.97
2018-04-29T01:01:45.083Z,5.63
2018-04-29T01:04:23.725Z,5.80
2018-04-29T01:07:01.924Z,5.97
2018-04-29T01:09:41.362Z,6.33
2018-04-29T01:12:21.408Z,6.70
2018-04-29T01:15:02.325Z,6.30
2018-04-29T01:17:41.639Z,5.63
2018-04-29T01:20:21.915Z,6.70
2018-04-29T01:22:59.838Z,7.17
2018-04-29T01:25:40.209Z,6.60
2018-04-29T01:28:20.274Z,6.73
2018-04-29T01:31:02.210Z,5.90
2018-04-29T01:36:23.023Z,6.33
2018-04-29T01:39:04.003Z,6.93
2018-04-29T01:41:44.460Z,6.13
2018-04-29T01:44:24.424Z,6.27
2018-04-29T01:47:04.454Z,5.50
2018-04-29T01:49:43.837Z,6.43
2018-04-29T01:52:23.027Z,7.00
2018-04-29T01:55:04.162Z,5.90
2018-04-29T01:57:42.266Z,6.13
2018-04-29T02:00:22.701Z,6.10
2018-04-29T02:03:05.520Z,6.13
2018-04-29T02:05:44.117Z,7.00
2018-04-29T02:08:22.949Z,6.17
2018-04-29T02:11:02.151Z,7.70
2018-04-29T02:13:40.374Z,8.00
2018-04-29T02:16:18.692Z,8.30
2018-04-29T02:18:58.536Z,10.80
2018-04-29T02:21:37.822Z,10.83
2018-04-29T02:24:18.332Z,9.70
2018-04-29T02:26:58.947Z,9.07
2018-04-29T02:29:39.058Z,8.67
2018-04-29T02:32:20.488Z,8.10
2018-04-29T02:34:57.917Z,9.77
2018-04-29T02:40:20.262Z,10.00
2018-04-29T02:43:00.157Z,10.07
2018-04-29T02:45:38.626Z,11.30
2018-04-29T02:48:17.356Z,11.63
2018-04-29T02:50:56.710Z,10.77
2018-04-29T02:53:35.694Z,12.40
2018-04-29T02:56:03.361Z,11.23
2018-04-29T02:58:30.283Z,13.43
2018-04-29T03:00:57.889Z,10.63
2018-04-29T03:03:24.802Z,11.20
2018-04-29T03:05:51.742Z,10.30
2018-04-29T03:08:20.328Z,11.50
2018-04-29T03:10:47.217Z,12.47
2018-04-29T03:13:14.144Z,11.47
2018-04-29T03:15:41.073Z,14.10
2018-04-29T03:18:07.948Z,10.93
2018-04-29T03:20:34.887Z,12.30
2018-04-29T03:23:01.835Z,11.50
2018-04-29T03:25:28.761Z,13.83
2018-04-29T03:27:55.635Z,13.30
2018-04-29T03:30:22.583Z,15.87
2018-04-29T03:32:49.501Z,12.97
2018-04-29T03:35:16.374Z,13.57
2018-04-29T03:37:43.310Z,15.00
2018-04-29T03:40:10.191Z,13.03
2018-04-29T03:42:37.074Z,14.93
2018-04-29T03:45:04.025Z,14.30
2018-04-29T03:47:30.990Z,13.07
2018-04-29T03:49:57.867Z,13.90
2018-04-29T03:52:24.738Z,13.60
2018-04-29T03:54:52.390Z,15.40
2018-04-29T03:57:31.544Z,15.90
2018-04-29T04:00:11.187Z,13.70
2018-04-29T04:02:51.130Z,14.60
2018-04-29T04:05:17.989Z,15.80
2018-04-29T04:07:44.906Z,16.77
2018-04-29T04:10:11.765Z,16.17
2018-04-29T04:12:39.424Z,15.87
2018-04-29T04:15:06.312Z,15.13
2018-04-29T04:17:33.227Z,17.00
2018-04-29T04:20:00.881Z,15.23
2018-04-29T04:22:27.724Z,15.83
2018-04-29T04:24:55.423Z,15.60
2018-04-29T04:27:35.468Z,15.37
2018-04-29T04:30:03.129Z,13.63
2018-04-29T04:32:30.050Z,12.70
2018-04-29T04:34:56.985Z,13.97
2018-04-29T04:37:23.850Z,13.00
2018-04-29T04:39:50.808Z,11.70
2018-04-29T04:42:17.680Z,10.70
2018-04-29T04:44:44.612Z,10.93
2018-04-29T04:49:35.757Z,9.90
2018-04-29T04:52:03.415Z,9.90
2018-04-29T04:54:30.360Z,9.90
2018-04-29T04:56:57.215Z,9.43
2018-04-29T04:59:24.139Z,9.83
2018-04-29T05:01:51.078Z,9.40
2018-04-29T05:04:17.997Z,8.90
2018-04-29T05:06:45.673Z,9.80
2018-04-29T05:09:13.345Z,8.23
2018-04-29T05:11:40.939Z,9.17
2018-04-29T05:14:07.950Z,9.93
2018-04-29T05:16:35.636Z,10.33
2018-04-29T05:19:02.559Z,8.10
2018-04-29T05:21:30.279Z,8.97
2018-04-29T05:23:57.163Z,8.80
2018-04-29T05:26:24.872Z,9.30
2018-04-29T05:28:51.719Z,9.00
2018-04-29T05:31:18.718Z,9.40
2018-04-29T05:33:46.316Z,8.83
2018-04-29T05:36:13.253Z,8.73
2018-04-29T05:38:40.102Z,10.00
2018-04-29T05:41:06.983Z,9.10
2018-04-29T05:43:34.677Z,9.50
2018-04-29T05:46:02.358Z,9.70
2018-04-29T05:48:29.212Z,9.90
2018-04-29T05:50:56.077Z,9.40
2018-04-29T05:53:22.988Z,9.90
2018-04-29T05:55:49.858Z,8.73
2018-04-29T05:58:16.774Z,9.90
2018-04-29T06:00:43.789Z,9.00
2018-04-29T06:03:10.770Z,9.83
2018-04-29T06:05:38.428Z,9.13
2018-04-29T06:08:05.337Z,7.87
2018-04-29T06:10:32.277Z,7.30
2018-04-29T06:12:59.229Z,7.57
2018-04-29T06:15:26.162Z,7.70
2018-04-29T06:17:53.100Z,7.30
2018-04-29T06:20:19.959Z,7.73
2018-04-29T06:22:46.878Z,7.40
2018-04-29T06:25:13.739Z,8.73
2018-04-29T06:27:40.661Z,9.80
2018-04-29T06:30:07.642Z,9.20
2018-04-29T06:32:34.570Z,10.20
2018-04-29T06:35:01.497Z,11.70
2018-04-29T06:37:28.736Z,12.17
2018-04-29T06:39:55.690Z,10.63
2018-04-29T06:42:26.705Z,10.70
2018-04-29T06:44:59.129Z,10.10
2018-04-29T06:47:26.168Z,9.37
2018-04-29T06:49:53.097Z,11.30
2018-04-29T06:52:19.961Z,11.10
2018-04-29T06:54:46.872Z,10.57
2018-04-29T06:57:13.736Z,11.47
2018-04-29T06:59:40.680Z,12.00
2018-04-29T07:02:07.580Z,10.77
2018-04-29T07:04:34.493Z,9.00
2018-04-29T07:07:01.409Z,11.63
2018-04-29T07:09:29.026Z,10.60
2018-04-29T07:11:55.964Z,10.77
2018-04-29T07:14:22.838Z,8.83
2018-04-29T07:16:49.779Z,8.37
2018-04-29T07:19:16.680Z,9.43
2018-04-29T07:21:43.610Z,8.77
2018-04-29T07:24:10.484Z,7.90
2018-04-29T07:26:37.864Z,7.40
2018-04-29T07:29:04.818Z,8.10
2018-04-29T07:31:31.774Z,8.30
2018-04-29T07:33:58.754Z,7.50
2018-04-29T07:36:25.698Z,7.57
2018-04-29T07:38:52.571Z,7.03
2018-04-29T07:41:19.508Z,7.00
2018-04-29T07:43:46.371Z,7.17
2018-04-29T07:46:13.354Z,6.53
2018-04-29T07:48:41.181Z,5.50
2018-04-29T07:51:08.213Z,7.03
2018-04-29T07:53:35.089Z,5.80
2018-04-29T07:56:01.964Z,7.50
2018-04-29T07:58:29.637Z,7.57
2018-04-29T08:00:56.599Z,8.00
2018-04-29T08:03:23.481Z,8.90
2018-04-29T08:05:50.337Z,8.33
2018-04-29T08:08:17.277Z,7.20
2018-04-29T08:10:44.142Z,8.13
2018-04-29T08:13:11.842Z,6.83
2018-04-29T08:15:38.708Z,6.50
2018-04-29T08:18:07.204Z,6.23
2018-04-29T08:20:34.067Z,6.53
2018-04-29T08:23:01.048Z,7.20
2018-04-29T08:25:28.027Z,6.20
2018-04-29T08:27:54.963Z,9.73
2018-04-29T08:30:21.932Z,8.60
2018-04-29T08:32:48.862Z,7.53
2018-04-29T08:35:15.736Z,7.70
2018-04-29T08:37:42.690Z,7.93
2018-04-29T08:40:10.380Z,7.83
2018-04-29T08:42:37.343Z,7.37
2018-04-29T08:45:04.438Z,7.30
2018-04-29T08:47:31.387Z,7.10
2018-04-29T08:49:58.309Z,6.27
2018-04-29T08:52:25.509Z,5.97
2018-04-29T08:54:52.480Z,5.73
2018-04-29T08:57:19.439Z,5.33
2018-04-29T08:59:46.625Z,6.27
2018-04-29T09:02:13.747Z,7.00
2018-04-29T09:04:40.662Z,9.47
2018-04-29T09:07:08.426Z,10.60
2018-04-29T09:09:36.177Z,8.73
2018-04-29T09:12:03.350Z,10.60
2018-04-29T09:14:31.073Z,9.83
2018-04-29T09:16:59.680Z,10.30
2018-04-29T09:19:26.557Z,11.90
2018-04-29T09:21:53.935Z,9.00
2018-04-29T09:24:21.028Z,9.13
2018-04-29T09:26:48.019Z,9.10
2018-04-29T09:29:14.902Z,10.27
2018-04-29T09:31:41.835Z,10.60
2018-04-29T09:34:08.762Z,9.57
2018-04-29T09:36:35.654Z,9.43
2018-04-29T09:39:03.810Z,9.73
2018-04-29T09:41:34.309Z,8.13
2018-04-29T09:44:05.118Z,6.70
2018-04-29T09:46:32.319Z,8.30
2018-04-29T09:48:59.184Z,7.87
2018-04-29T09:51:30.613Z,7.90
2018-04-29T09:54:02.216Z,7.00
2018-04-29T09:56:30.405Z,8.03
2018-04-29T09:59:01.643Z,7.00
2018-04-29T10:01:28.988Z,7.43
2018-04-29T10:03:58.402Z,7.97
2018-04-29T10:06:34.729Z,6.80
2018-04-29T10:09:07.478Z,7.87
2018-04-29T10:11:34.506Z,9.10
2018-04-29T10:14:06.198Z,8.60
2018-04-29T10:16:38.742Z,8.77
2018-04-29T10:19:12.908Z,9.40
2018-04-29T10:21:46.050Z,9.40
2018-04-29T10:24:18.329Z,10.73
2018-04-29T10:26:51.376Z,9.27
2018-04-29T10:29:25.167Z,9.00
2018-04-29T10:32:00.932Z,7.60
2018-04-29T10:34:36.361Z,7.67
2018-04-29T10:37:12.449Z,8.10
2018-04-29T10:39:49.534Z,7.80
2018-04-29T10:42:29.488Z,8.07
2018-04-29T10:45:05.135Z,9.77
2018-04-29T10:47:41.829Z,9.30
2018-04-29T10:50:19.240Z,9.90
2018-04-29T10:52:56.229Z,8.50
2018-04-29T10:55:32.812Z,9.40
2018-04-29T10:58:09.616Z,10.00
2018-04-29T11:00:46.185Z,10.40
2018-04-29T11:03:23.387Z,9.63
2018-04-29T11:06:06.394Z,11.53
2018-04-29T11:08:44.897Z,9.30
2018-04-29T11:14:11.433Z,10.53
2018-04-29T11:16:40.865Z,9.20
2018-04-29T11:24:50.914Z,9.00
2018-04-29T11:27:31.761Z,9.20
2018-04-29T11:32:54.485Z,8.37
2018-04-29T11:35:22.445Z,8.13
2018-04-29T11:37:49.323Z,8.53
2018-04-29T11:40:29.061Z,7.37
2018-04-29T11:42:57.881Z,7.20
2018-04-29T11:45:24.722Z,7.47
2018-04-29T11:47:51.766Z,7.37
2018-04-29T11:50:18.636Z,7.10
2018-04-29T11:52:46.301Z,7.00
2018-04-29T11:55:14.023Z,7.03
2018-04-29T11:57:40.981Z,8.13
2018-04-29T12:00:08.668Z,6.80
2018-04-29T12:02:36.522Z,7.97
2018-04-29T12:05:04.160Z,6.50
2018-04-29T12:07:31.036Z,8.67
2018-04-29T12:09:58.790Z,7.60
2018-04-29T12:12:25.732Z,8.80
2018-04-29T12:14:52.666Z,7.63
2018-04-29T12:17:19.526Z,7.60
2018-04-29T12:19:47.202Z,6.93
2018-04-29T12:22:14.814Z,7.47
2018-04-29T12:24:41.734Z,6.70
2018-04-29T12:27:14.196Z,7.37
2018-04-29T12:29:47.115Z,6.80
2018-04-29T12:32:31.191Z,7.37
2018-04-29T12:35:13.258Z,7.93
2018-04-29T12:37:54.853Z,7.70
2018-04-29T12:40:37.880Z,6.87
2018-04-29T12:43:06.358Z,6.23
2018-04-29T12:45:33.222Z,7.20
2018-04-29T12:48:01.213Z,7.60
2018-04-29T12:50:29.141Z,6.90
2018-04-29T12:52:56.613Z,7.77
2018-04-29T12:55:23.518Z,6.90
2018-04-29T12:57:50.459Z,7.40
2018-04-29T13:00:18.202Z,7.40
2018-04-29T13:02:50.395Z,7.60
2018-04-29T13:05:23.305Z,8.73
2018-04-29T13:07:50.886Z,8.67
2018-04-29T13:10:17.817Z,7.20
2018-04-29T13:12:44.806Z,7.70
2018-04-29T13:15:11.674Z,8.63
2018-04-29T13:17:50.991Z,7.93
2018-04-29T13:20:22.621Z,9.10
2018-04-29T13:22:54.408Z,8.83
2018-04-29T13:25:22.243Z,7.57
2018-04-29T13:27:57.633Z,6.50
2018-04-29T13:30:25.006Z,7.00
2018-04-29T13:32:51.876Z,6.70
2018-04-29T13:35:26.406Z,7.83
2018-04-29T13:37:53.454Z,7.07
2018-04-29T13:40:30.855Z,6.60
2018-04-29T13:42:58.122Z,7.83
2018-04-29T13:45:24.999Z,6.40
2018-04-29T13:47:52.860Z,7.17
2018-04-29T13:50:19.814Z,7.63
2018-04-29T13:52:50.561Z,6.50
2018-04-29T13:55:24.599Z,7.93
2018-04-29T13:57:51.538Z,7.60
2018-04-29T14:00:20.572Z,6.47
2018-04-29T14:02:47.758Z,6.60
2018-04-29T14:05:15.758Z,7.30
2018-04-29T14:07:42.628Z,5.93
2018-04-29T14:10:09.982Z,6.47
2018-04-29T14:12:41.749Z,6.30
2018-04-29T14:15:09.635Z,5.87
2018-04-29T14:17:37.421Z,6.73
2018-04-29T14:20:05.081Z,6.03
2018-04-29T14:22:31.994Z,6.27
2018-04-29T14:24:58.841Z,6.00
2018-04-29T14:27:35.711Z,6.50
2018-04-29T14:30:02.994Z,5.87
2018-04-29T14:32:30.668Z,5.87
2018-04-29T14:34:57.847Z,5.50
2018-04-29T14:37:24.774Z,5.53
2018-04-29T14:39:51.730Z,5.50
2018-04-29T14:42:18.597Z,5.73
2018-04-29T14:44:47.533Z,6.37
2018-04-29T14:47:15.557Z,5.97
2018-04-29T14:49:43.184Z,6.03
2018-04-29T14:52:10.874Z,6.10
2018-04-29T14:54:37.825Z,5.93
2018-04-29T14:57:09.495Z,6.30
2018-04-29T14:59:36.689Z,6.00
2018-04-29T15:02:04.645Z,5.10
2018-04-29T15:04:42.509Z,6.97
2018-04-29T15:07:10.097Z,5.43
2018-04-29T15:09:37.653Z,8.30
2018-04-29T15:12:05.465Z,6.13
2018-04-29T15:14:33.309Z,6.23
2018-04-29T15:17:00.221Z,4.90
2018-04-29T15:19:39.274Z,5.80
2018-04-29T15:22:06.134Z,5.33
2018-04-29T15:24:33.061Z,6.47
2018-04-29T15:26:59.996Z,5.83
2018-04-29T15:29:28.428Z,6.00
2018-04-29T15:31:57.111Z,5.57
2018-04-29T15:34:24.517Z,6.20
2018-04-29T15:36:53.160Z,5.67
2018-04-29T15:39:23.729Z,4.97
2018-04-29T15:41:56.907Z,5.47
2018-04-29T15:44:24.924Z,5.57
2018-04-29T15:46:51.952Z,5.87
2018-04-29T15:49:18.871Z,6.37
2018-04-29T15:51:45.948Z,5.83
2018-04-29T15:54:12.885Z,6.27
2018-04-29T15:56:39.830Z,6.33
2018-04-29T15:59:06.705Z,5.80
2018-04-29T16:01:33.642Z,5.67
2018-04-29T16:04:00.498Z,6.00
2018-04-29T16:06:27.434Z,6.67
2018-04-29T16:08:54.398Z,6.57
2018-04-29T16:11:21.351Z,7.53
2018-04-29T16:13:49.019Z,7.50
2018-04-29T16:16:16.708Z,7.13
2018-04-29T16:18:48.852Z,6.37
2018-04-29T16:21:16.117Z,7.10
2018-04-29T16:23:43.058Z,6.60
2018-04-29T16:26:10.667Z,7.37
2018-04-29T16:28:37.591Z,6.80
2018-04-29T16:31:04.511Z,6.27
2018-04-29T16:33:31.461Z,6.33
2018-04-29T16:35:58.338Z,6.80
2018-04-29T16:38:25.271Z,5.70
2018-04-29T16:40:52.117Z,6.10
2018-04-29T16:43:19.069Z,6.27
2018-04-29T16:45:45.944Z,5.60
2018-04-29T16:48:12.930Z,6.67
2018-04-29T16:50:40.526Z,6.00
2018-04-29T16:53:07.529Z,7.03
2018-04-29T16:55:34.534Z,13.97
2018-04-29T16:58:01.354Z,7.30
2018-04-29T17:00:28.300Z,6.77
2018-04-29T17:02:55.202Z,6.57
2018-04-29T17:05:22.893Z,9.60
2018-04-29T17:07:49.767Z,24.17
2018-04-29T17:10:16.693Z,19.90
2018-04-29T17:12:43.643Z,15.57
2018-04-29T17:15:10.553Z,10.23
2018-04-29T17:17:38.252Z,8.90
2018-04-29T17:20:05.149Z,8.00
2018-04-29T17:22:32.036Z,6.90
2018-04-29T17:24:58.964Z,7.30
2018-04-29T17:27:25.845Z,7.87
2018-04-29T17:29:52.777Z,7.80
2018-04-29T17:32:20.569Z,7.03
2018-04-29T17:34:47.488Z,7.00
2018-04-29T17:37:14.340Z,6.87
2018-04-29T17:39:41.262Z,7.10
2018-04-29T17:42:08.265Z,6.50
2018-04-29T17:44:35.167Z,6.37
2018-04-29T17:47:02.113Z,7.03
2018-04-29T17:49:28.960Z,7.67
2018-04-29T17:51:56.004Z,6.57
2018-04-29T17:54:23.122Z,7.67
2018-04-29T17:56:49.960Z,7.37
2018-04-29T17:59:27.352Z,7.67
2018-04-29T18:01:54.292Z,7.00
2018-04-29T18:04:21.506Z,7.23
2018-04-29T18:06:48.530Z,7.60
2018-04-29T18:09:15.389Z,7.87
2018-04-29T18:11:42.314Z,7.80
2018-04-29T18:14:09.901Z,6.93
2018-04-29T18:16:36.761Z,7.20
2018-04-29T18:19:03.798Z,6.83
2018-04-29T18:21:30.738Z,7.87
2018-04-29T18:23:57.597Z,7.33
2018-04-29T18:26:24.478Z,6.50
2018-04-29T18:28:52.196Z,6.90
2018-04-29T18:31:19.161Z,6.60
2018-04-29T18:33:46.043Z,7.20
2018-04-29T18:36:12.984Z,6.33
2018-04-29T18:38:40.697Z,7.90
2018-04-29T18:41:07.684Z,7.40
2018-04-29T18:43:34.605Z,7.93
2018-04-29T18:46:01.471Z,6.97
2018-04-29T18:48:28.425Z,7.43
2018-04-29T18:50:55.446Z,7.63
2018-04-29T18:53:22.361Z,8.00
2018-04-29T18:55:49.284Z,7.03
2018-04-29T18:58:16.290Z,8.17
2018-04-29T19:00:43.157Z,6.87
2018-04-29T19:03:10.878Z,8.00
2018-04-29T19:05:46.365Z,6.67
2018-04-29T19:08:13.274Z,8.60
2018-04-29T19:10:40.206Z,7.37
2018-04-29T19:13:07.103Z,7.93
2018-04-29T19:15:34.800Z,7.83
2018-04-29T19:18:01.664Z,7.87
2018-04-29T19:20:28.617Z,7.70
2018-04-29T19:22:55.489Z,7.70
2018-04-29T19:25:22.434Z,7.97
2018-04-29T19:27:49.329Z,8.10
2018-04-29T19:30:16.197Z,8.00
2018-04-29T19:32:43.138Z,9.23
2018-04-29T19:35:10.022Z,9.33
2018-04-29T19:37:37.001Z,8.63
2018-04-29T19:40:04.660Z,8.23
2018-04-29T19:42:32.367Z,7.50
2018-04-29T19:44:59.318Z,8.47
2018-04-29T19:47:26.269Z,8.67
2018-04-29T19:49:53.240Z,8.37
2018-04-29T19:52:20.174Z,8.67
2018-04-29T19:54:47.162Z,8.53
2018-04-29T19:57:14.018Z,8.40
2018-04-29T19:59:41.111Z,9.30
2018-04-29T20:02:10.914Z,8.63
2018-04-29T20:04:37.878Z,12.17
2018-04-29T20:07:04.747Z,9.27
2018-04-29T20:09:32.421Z,9.83
2018-04-29T20:12:00.032Z,9.20
2018-04-29T20:14:26.961Z,17.13
2018-04-29T20:16:53.956Z,11.37
2018-04-29T20:19:20.811Z,8.50
2018-04-29T20:21:48.485Z,10.20
2018-04-29T20:24:15.378Z,8.40
2018-04-29T20:26:42.290Z,8.10
2018-04-29T20:29:09.275Z,8.50
2018-04-29T20:31:36.169Z,8.73
2018-04-29T20:34:04.010Z,7.93
2018-04-29T20:36:30.884Z,8.30
2018-04-29T20:38:57.769Z,8.30
2018-04-29T20:41:24.693Z,9.10
2018-04-29T20:43:51.604Z,9.40
2018-04-29T20:46:19.230Z,8.13
2018-04-29T20:48:46.158Z,8.50
2018-04-29T20:51:13.084Z,8.83
2018-04-29T20:53:39.965Z,10.17
2018-04-29T20:56:06.919Z,8.70
2018-04-29T20:58:33.784Z,8.63
2018-04-29T21:01:00.709Z,9.50
2018-04-29T21:03:27.561Z,8.77
2018-04-29T21:05:54.569Z,9.00
2018-04-29T21:08:21.443Z,8.67
2018-04-29T21:10:52.334Z,9.23
2018-04-29T21:13:19.255Z,9.40
2018-04-29T21:15:46.234Z,8.53
2018-04-29T21:18:13.094Z,9.37
2018-04-29T21:20:40.070Z,9.63
2018-04-29T21:23:06.942Z,9.30
2018-04-29T21:25:34.553Z,8.73
2018-04-29T21:28:01.488Z,8.83
2018-04-29T21:30:28.418Z,8.27
2018-04-29T21:32:55.293Z,7.50
2018-04-29T21:35:22.217Z,8.60
2018-04-29T21:37:49.147Z,8.40
2018-04-29T21:40:16.006Z,10.37
2018-04-29T21:42:42.924Z,9.50
2018-04-29T21:45:10.607Z,7.93
2018-04-29T21:47:37.498Z,8.30
2018-04-29T21:50:06.112Z,7.43
2018-04-29T21:52:33.740Z,7.90
2018-04-29T21:55:00.758Z,8.40
2018-04-29T21:57:27.696Z,8.13
2018-04-29T21:59:54.565Z,8.37
2018-04-29T22:02:21.542Z,8.13
2018-04-29T22:04:48.407Z,8.73
2018-04-29T22:07:16.078Z,8.10
2018-04-29T22:09:43.821Z,7.60
2018-04-29T22:12:10.817Z,8.20
2018-04-29T22:14:37.761Z,8.73
2018-04-29T22:17:04.626Z,8.80
2018-04-29T22:19:31.546Z,7.50
2018-04-29T22:21:58.411Z,8.80
2018-04-29T22:24:25.344Z,8.30
2018-04-29T22:26:52.216Z,8.23
2018-04-29T22:29:19.198Z,7.40
2018-04-29T22:31:46.926Z,8.80
2018-04-29T22:34:13.869Z,7.00
2018-04-29T22:36:41.885Z,7.93
2018-04-29T22:39:08.904Z,7.97
2018-04-29T22:41:35.837Z,7.63
2018-04-29T22:44:02.705Z,7.23
2018-04-29T22:46:29.650Z,7.93
2018-04-29T22:48:56.522Z,9.17
2018-04-29T22:51:24.130Z,8.20
2018-04-29T22:53:51.074Z,7.90
2018-04-29T22:56:17.999Z,7.83
2018-04-29T22:58:44.860Z,6.97
2018-04-29T23:01:11.819Z,8.40
2018-04-29T23:03:38.677Z,7.80
2018-04-29T23:06:05.560Z,7.53
2018-04-29T23:08:32.491Z,8.53
2018-04-29T23:11:00.094Z,7.47
2018-04-29T23:13:27.040Z,6.63
2018-04-29T23:15:53.938Z,8.70
2018-04-29T23:18:21.608Z,9.00
2018-04-29T23:20:49.256Z,7.37
2018-04-29T23:23:16.193Z,10.10
2018-04-29T23:25:43.081Z,7.23
2018-04-29T23:28:10.032Z,7.77
2018-04-29T23:30:37.628Z,6.63
2018-04-29T23:33:17.094Z,7.40
2018-04-29T23:35:44.911Z,6.53
2018-04-29T23:38:11.830Z,7.57
2018-04-29T23:40:39.945Z,7.00
2018-04-29T23:43:14.569Z,7.63
2018-04-29T23:45:42.728Z,7.40
2018-04-29T23:48:09.656Z,7.60
2018-04-29T23:50:36.527Z,7.27
2018-04-29T23:53:03.385Z,9.00
2018-04-29T23:55:30.361Z,8.13
2018-04-29T23:57:57.346Z,8.50
